sensor_id;sensor_type;location;lat;lon;timestamp;P1;durP1;ratioP1;P2;durP2;ratioP2
48891;SDS011;50130;52.150;5.236;2022-08-30T00:02:32;7.7;;;4.5;;
48891;SDS011;50130;52.150;5.236;2022-08-30T00:05:44;8.5;;;5.3;;
48891;SDS011;50130;52.150;5.236;2022-08-30T00:07:21;7.3;;;4.41;;
48891;SDS011;50130;52.150;5.236;2022-08-30T00:08:58;9.6;;;4.41;;
48891;SDS011;50130;52.150;5.236;2022-08-30T00:12:12;8.4;;;5.11;;
48891;SDS011;50130;52.150;5.236;2022-08-30T00:13:49;8.2;;;4.41;;
48891;SDS011;50130;52.150;5.236;2022-08-30T00:15:28;9.0;;;4.91;;
48891;SDS011;50130;52.150;5.236;2022-08-30T00:17:04;8.6;;;5.4;;
48891;SDS011;50130;52.150;5.236;2022-08-30T00:20:18;9.4;;;5.11;;
48891;SDS011;50130;52.150;5.236;2022-08-30T00:22:03;8.4;;;4.91;;
48891;SDS011;50130;52.150;5.236;2022-08-30T00:23:40;9.71;;;5.2;;
48891;SDS011;50130;52.150;5.236;2022-08-30T00:26:55;8.6;;;5.2;;
48891;SDS011;50130;52.150;5.236;2022-08-30T00:28:33;11.0;;;5.6;;
48891;SDS011;50130;52.150;5.236;2022-08-30T00:30:10;12.7;;;5.8;;
48891;SDS011;50130;52.150;5.236;2022-08-30T00:31:49;7.7;;;5.0;;
48891;SDS011;50130;52.150;5.236;2022-08-30T00:35:01;10.8;;;5.5;;
48891;SDS011;50130;52.150;5.236;2022-08-30T00:36:41;8.1;;;5.2;;
48891;SDS011;50130;52.150;5.236;2022-08-30T00:38:17;7.8;;;5.0;;
48891;SDS011;50130;52.150;5.236;2022-08-30T00:41:29;10.1;;;5.3;;
48891;SDS011;50130;52.150;5.236;2022-08-30T00:43:06;8.6;;;5.7;;
48891;SDS011;50130;52.150;5.236;2022-08-30T00:44:50;12.1;;;6.4;;
48891;SDS011;50130;52.150;5.236;2022-08-30T00:46:27;9.0;;;5.3;;
48891;SDS011;50130;52.150;5.236;2022-08-30T00:49:43;7.9;;;5.5;;
48891;SDS011;50130;52.150;5.236;2022-08-30T00:51:24;10.9;;;5.5;;
48891;SDS011;50130;52.150;5.236;2022-08-30T00:53:02;7.4;;;5.3;;
48891;SDS011;50130;52.150;5.236;2022-08-30T00:54:44;10.3;;;6.0;;
48891;SDS011;50130;52.150;5.236;2022-08-30T00:58:02;10.4;;;6.1;;
48891;SDS011;50130;52.150;5.236;2022-08-30T00:59:42;10.4;;;6.1;;
48891;SDS011;50130;52.150;5.236;2022-08-30T01:01:20;9.71;;;5.2;;
48891;SDS011;50130;52.150;5.236;2022-08-30T01:04:33;7.8;;;5.4;;
48891;SDS011;50130;52.150;5.236;2022-08-30T01:06:14;9.0;;;5.6;;
48891;SDS011;50130;52.150;5.236;2022-08-30T01:07:52;10.5;;;6.0;;
48891;SDS011;50130;52.150;5.236;2022-08-30T01:09:28;9.31;;;5.8;;
48891;SDS011;50130;52.150;5.236;2022-08-30T01:12:42;10.9;;;5.9;;
48891;SDS011;50130;52.150;5.236;2022-08-30T01:14:20;10.3;;;5.9;;
48891;SDS011;50130;52.150;5.236;2022-08-30T01:15:58;8.0;;;5.9;;
48891;SDS011;50130;52.150;5.236;2022-08-30T01:19:17;8.9;;;6.4;;
48891;SDS011;50130;52.150;5.236;2022-08-30T01:21:06;9.6;;;6.4;;
48891;SDS011;50130;52.150;5.236;2022-08-30T01:22:57;7.3;;;5.7;;
48891;SDS011;50130;52.150;5.236;2022-08-30T01:24:47;7.7;;;5.5;;
48891;SDS011;50130;52.150;5.236;2022-08-30T01:26:26;11.5;;;7.0;;
48891;SDS011;50130;52.150;5.236;2022-08-30T01:29:45;8.31;;;6.1;;
48891;SDS011;50130;52.150;5.236;2022-08-30T01:31:21;9.5;;;6.6;;
48891;SDS011;50130;52.150;5.236;2022-08-30T01:32:58;10.7;;;6.9;;
48891;SDS011;50130;52.150;5.236;2022-08-30T01:34:37;9.5;;;6.2;;
48891;SDS011;50130;52.150;5.236;2022-08-30T01:37:50;8.5;;;6.7;;
48891;SDS011;50130;52.150;5.236;2022-08-30T01:39:26;11.9;;;6.8;;
48891;SDS011;50130;52.150;5.236;2022-08-30T01:41:07;11.0;;;7.3;;
48891;SDS011;50130;52.150;5.236;2022-08-30T01:44:21;11.5;;;7.3;;
48891;SDS011;50130;52.150;5.236;2022-08-30T01:46:00;11.1;;;8.1;;
48891;SDS011;50130;52.150;5.236;2022-08-30T01:47:38;9.21;;;7.7;;
48891;SDS011;50130;52.150;5.236;2022-08-30T01:49:16;13.4;;;8.31;;
48891;SDS011;50130;52.150;5.236;2022-08-30T01:52:30;10.3;;;8.0;;
48891;SDS011;50130;52.150;5.236;2022-08-30T01:54:08;9.4;;;7.5;;
48891;SDS011;50130;52.150;5.236;2022-08-30T01:55:45;9.5;;;7.0;;
48891;SDS011;50130;52.150;5.236;2022-08-30T01:58:59;12.9;;;8.71;;
48891;SDS011;50130;52.150;5.236;2022-08-30T02:00:37;10.21;;;8.6;;
48891;SDS011;50130;52.150;5.236;2022-08-30T02:02:15;9.5;;;7.1;;
48891;SDS011;50130;52.150;5.236;2022-08-30T02:03:54;10.0;;;7.8;;
48891;SDS011;50130;52.150;5.236;2022-08-30T02:07:09;12.2;;;9.6;;
48891;SDS011;50130;52.150;5.236;2022-08-30T02:08:46;9.5;;;7.7;;
48891;SDS011;50130;52.150;5.236;2022-08-30T02:10:23;10.3;;;7.8;;
48891;SDS011;50130;52.150;5.236;2022-08-30T02:13:36;9.5;;;7.8;;
48891;SDS011;50130;52.150;5.236;2022-08-30T02:15:15;9.0;;;8.1;;
48891;SDS011;50130;52.150;5.236;2022-08-30T02:16:52;8.9;;;7.2;;
48891;SDS011;50130;52.150;5.236;2022-08-30T02:18:28;9.6;;;6.9;;
48891;SDS011;50130;52.150;5.236;2022-08-30T02:21:42;8.2;;;6.7;;
48891;SDS011;50130;52.150;5.236;2022-08-30T02:23:18;11.7;;;7.6;;
48891;SDS011;50130;52.150;5.236;2022-08-30T02:24:54;10.1;;;7.9;;
48891;SDS011;50130;52.150;5.236;2022-08-30T02:28:08;10.8;;;8.9;;
48891;SDS011;50130;52.150;5.236;2022-08-30T02:29:45;9.21;;;7.8;;
48891;SDS011;50130;52.150;5.236;2022-08-30T02:31:21;9.0;;;7.0;;
48891;SDS011;50130;52.150;5.236;2022-08-30T02:34:33;11.5;;;8.0;;
48891;SDS011;50130;52.150;5.236;2022-08-30T02:36:11;13.6;;;8.9;;
48891;SDS011;50130;52.150;5.236;2022-08-30T02:37:48;7.6;;;6.5;;
48891;SDS011;50130;52.150;5.236;2022-08-30T02:39:24;8.6;;;7.6;;
48891;SDS011;50130;52.150;5.236;2022-08-30T02:42:36;8.6;;;7.6;;
48891;SDS011;50130;52.150;5.236;2022-08-30T02:44:12;9.4;;;8.4;;
48891;SDS011;50130;52.150;5.236;2022-08-30T02:45:49;10.1;;;9.1;;
48891;SDS011;50130;52.150;5.236;2022-08-30T02:49:02;11.1;;;8.5;;
48891;SDS011;50130;52.150;5.236;2022-08-30T02:50:40;11.2;;;8.4;;
48891;SDS011;50130;52.150;5.236;2022-08-30T02:52:20;10.9;;;9.21;;
48891;SDS011;50130;52.150;5.236;2022-08-30T02:55:33;11.9;;;9.6;;
48891;SDS011;50130;52.150;5.236;2022-08-30T02:57:11;13.3;;;9.0;;
48891;SDS011;50130;52.150;5.236;2022-08-30T02:58:47;11.2;;;9.6;;
48891;SDS011;50130;52.150;5.236;2022-08-30T03:00:23;9.6;;;8.71;;
48891;SDS011;50130;52.150;5.236;2022-08-30T03:03:35;12.0;;;9.0;;
48891;SDS011;50130;52.150;5.236;2022-08-30T03:05:12;13.1;;;9.71;;
48891;SDS011;50130;52.150;5.236;2022-08-30T03:06:51;11.4;;;9.71;;
48891;SDS011;50130;52.150;5.236;2022-08-30T03:10:03;10.9;;;9.21;;
48891;SDS011;50130;52.150;5.236;2022-08-30T03:11:41;9.1;;;8.1;;
48891;SDS011;50130;52.150;5.236;2022-08-30T03:13:17;9.9;;;8.9;;
48891;SDS011;50130;52.150;5.236;2022-08-30T03:14:55;8.9;;;7.8;;
48891;SDS011;50130;52.150;5.236;2022-08-30T03:18:09;10.7;;;8.6;;
48891;SDS011;50130;52.150;5.236;2022-08-30T03:19:46;10.4;;;8.0;;
48891;SDS011;50130;52.150;5.236;2022-08-30T03:21:22;9.4;;;8.4;;
48891;SDS011;50130;52.150;5.236;2022-08-30T03:24:35;10.21;;;8.31;;
48891;SDS011;50130;52.150;5.236;2022-08-30T03:26:13;10.21;;;8.4;;
48891;SDS011;50130;52.150;5.236;2022-08-30T03:27:50;9.71;;;8.31;;
48891;SDS011;50130;52.150;5.236;2022-08-30T03:31:04;10.0;;;7.0;;
48891;SDS011;50130;52.150;5.236;2022-08-30T03:32:41;11.3;;;7.7;;
48891;SDS011;50130;52.150;5.236;2022-08-30T03:34:17;8.4;;;7.4;;
48891;SDS011;50130;52.150;5.236;2022-08-30T03:35:54;11.1;;;8.4;;
48891;SDS011;50130;52.150;5.236;2022-08-30T03:39:08;10.6;;;8.6;;
48891;SDS011;50130;52.150;5.236;2022-08-30T03:40:45;11.7;;;8.5;;
48891;SDS011;50130;52.150;5.236;2022-08-30T03:42:21;11.7;;;10.5;;
48891;SDS011;50130;52.150;5.236;2022-08-30T03:45:38;13.3;;;12.0;;
48891;SDS011;50130;52.150;5.236;2022-08-30T03:47:15;13.4;;;11.0;;
48891;SDS011;50130;52.150;5.236;2022-08-30T03:48:51;14.1;;;12.6;;
48891;SDS011;50130;52.150;5.236;2022-08-30T03:50:29;11.5;;;10.3;;
48891;SDS011;50130;52.150;5.236;2022-08-30T03:53:42;14.8;;;12.1;;
48891;SDS011;50130;52.150;5.236;2022-08-30T03:55:20;14.3;;;12.1;;
48891;SDS011;50130;52.150;5.236;2022-08-30T03:56:56;15.4;;;12.8;;
48891;SDS011;50130;52.150;5.236;2022-08-30T04:00:10;13.2;;;11.8;;
48891;SDS011;50130;52.150;5.236;2022-08-30T04:01:49;15.6;;;13.2;;
48891;SDS011;50130;52.150;5.236;2022-08-30T04:03:26;16.7;;;14.5;;
48891;SDS011;50130;52.150;5.236;2022-08-30T04:06:40;15.5;;;13.5;;
48891;SDS011;50130;52.150;5.236;2022-08-30T04:08:16;16.2;;;13.8;;
48891;SDS011;50130;52.150;5.236;2022-08-30T04:09:53;14.6;;;12.8;;
48891;SDS011;50130;52.150;5.236;2022-08-30T04:11:29;18.41;;;16.5;;
48891;SDS011;50130;52.150;5.236;2022-08-30T04:14:41;18.11;;;15.2;;
48891;SDS011;50130;52.150;5.236;2022-08-30T04:16:18;17.61;;;15.7;;
48891;SDS011;50130;52.150;5.236;2022-08-30T04:17:55;16.11;;;12.9;;
48891;SDS011;50130;52.150;5.236;2022-08-30T04:21:07;17.61;;;15.3;;
48891;SDS011;50130;52.150;5.236;2022-08-30T04:22:43;14.7;;;13.2;;
48891;SDS011;50130;52.150;5.236;2022-08-30T04:24:20;15.1;;;13.5;;
48891;SDS011;50130;52.150;5.236;2022-08-30T04:27:34;18.2;;;15.1;;
48891;SDS011;50130;52.150;5.236;2022-08-30T04:29:11;17.41;;;15.6;;
48891;SDS011;50130;52.150;5.236;2022-08-30T04:30:47;18.3;;;16.3;;
48891;SDS011;50130;52.150;5.236;2022-08-30T04:32:24;17.5;;;15.1;;
48891;SDS011;50130;52.150;5.236;2022-08-30T04:35:39;16.4;;;14.7;;
48891;SDS011;50130;52.150;5.236;2022-08-30T04:37:17;15.3;;;13.7;;
48891;SDS011;50130;52.150;5.236;2022-08-30T04:38:53;17.2;;;15.4;;
48891;SDS011;50130;52.150;5.236;2022-08-30T04:42:05;16.11;;;14.5;;
48891;SDS011;50130;52.150;5.236;2022-08-30T04:43:41;15.5;;;14.0;;
48891;SDS011;50130;52.150;5.236;2022-08-30T04:45:19;15.8;;;14.2;;
48891;SDS011;50130;52.150;5.236;2022-08-30T04:46:57;16.3;;;12.9;;
48891;SDS011;50130;52.150;5.236;2022-08-30T04:50:13;16.8;;;15.0;;
48891;SDS011;50130;52.150;5.236;2022-08-30T04:51:53;17.8;;;16.0;;
48891;SDS011;50130;52.150;5.236;2022-08-30T04:53:30;16.9;;;15.2;;
48891;SDS011;50130;52.150;5.236;2022-08-30T04:56:45;15.8;;;14.2;;
48891;SDS011;50130;52.150;5.236;2022-08-30T04:58:22;14.4;;;13.0;;
48891;SDS011;50130;52.150;5.236;2022-08-30T04:59:59;16.61;;;14.2;;
48891;SDS011;50130;52.150;5.236;2022-08-30T05:01:36;16.61;;;14.8;;
48891;SDS011;50130;52.150;5.236;2022-08-30T05:05:56;16.7;;;14.7;;
48891;SDS011;50130;52.150;5.236;2022-08-30T05:07:34;15.5;;;13.9;;
48891;SDS011;50130;52.150;5.236;2022-08-30T05:09:12;15.1;;;13.6;;
48891;SDS011;50130;52.150;5.236;2022-08-30T05:10:49;16.4;;;14.7;;
48891;SDS011;50130;52.150;5.236;2022-08-30T05:12:28;17.2;;;14.4;;
48891;SDS011;50130;52.150;5.236;2022-08-30T05:15:41;16.5;;;13.8;;
48891;SDS011;50130;52.150;5.236;2022-08-30T05:17:19;15.8;;;14.2;;
48891;SDS011;50130;52.150;5.236;2022-08-30T05:18:56;17.7;;;15.8;;
48891;SDS011;50130;52.150;5.236;2022-08-30T05:20:33;18.11;;;15.8;;
48891;SDS011;50130;52.150;5.236;2022-08-30T05:23:47;14.2;;;12.5;;
48891;SDS011;50130;52.150;5.236;2022-08-30T05:25:25;16.8;;;14.1;;
48891;SDS011;50130;52.150;5.236;2022-08-30T05:27:04;17.5;;;14.5;;
48891;SDS011;50130;52.150;5.236;2022-08-30T05:30:18;16.2;;;13.9;;
48891;SDS011;50130;52.150;5.236;2022-08-30T05:31:55;16.2;;;14.6;;
48891;SDS011;50130;52.150;5.236;2022-08-30T05:33:32;15.5;;;13.8;;
48891;SDS011;50130;52.150;5.236;2022-08-30T05:35:09;16.8;;;15.1;;
48891;SDS011;50130;52.150;5.236;2022-08-30T05:38:24;14.2;;;12.7;;
48891;SDS011;50130;52.150;5.236;2022-08-30T05:40:00;13.7;;;12.3;;
48891;SDS011;50130;52.150;5.236;2022-08-30T05:41:37;15.0;;;13.1;;
48891;SDS011;50130;52.150;5.236;2022-08-30T05:44:51;15.5;;;13.9;;
48891;SDS011;50130;52.150;5.236;2022-08-30T05:46:32;15.4;;;12.7;;
48891;SDS011;50130;52.150;5.236;2022-08-30T05:48:08;15.7;;;14.0;;
48891;SDS011;50130;52.150;5.236;2022-08-30T05:49:45;16.4;;;14.7;;
48891;SDS011;50130;52.150;5.236;2022-08-30T05:53:01;15.0;;;13.1;;
48891;SDS011;50130;52.150;5.236;2022-08-30T05:54:37;14.4;;;13.0;;
48891;SDS011;50130;52.150;5.236;2022-08-30T05:56:14;13.4;;;12.0;;
48891;SDS011;50130;52.150;5.236;2022-08-30T05:59:29;15.2;;;12.4;;
48891;SDS011;50130;52.150;5.236;2022-08-30T06:01:05;15.3;;;12.2;;
48891;SDS011;50130;52.150;5.236;2022-08-30T06:02:43;14.1;;;12.6;;
48891;SDS011;50130;52.150;5.236;2022-08-30T06:05:55;11.8;;;10.6;;
48891;SDS011;50130;52.150;5.236;2022-08-30T06:07:31;11.7;;;10.5;;
48891;SDS011;50130;52.150;5.236;2022-08-30T06:09:09;12.6;;;11.3;;
48891;SDS011;50130;52.150;5.236;2022-08-30T06:10:48;13.8;;;11.9;;
48891;SDS011;50130;52.150;5.236;2022-08-30T06:14:02;14.2;;;12.0;;
48891;SDS011;50130;52.150;5.236;2022-08-30T06:15:39;11.4;;;10.21;;
48891;SDS011;50130;52.150;5.236;2022-08-30T06:17:16;13.2;;;11.8;;
48891;SDS011;50130;52.150;5.236;2022-08-30T06:20:31;12.6;;;11.1;;
48891;SDS011;50130;52.150;5.236;2022-08-30T06:22:07;12.8;;;11.4;;
48891;SDS011;50130;52.150;5.236;2022-08-30T06:23:44;12.2;;;10.8;;
48891;SDS011;50130;52.150;5.236;2022-08-30T06:25:21;12.3;;;10.1;;
48891;SDS011;50130;52.150;5.236;2022-08-30T06:28:33;13.1;;;11.5;;
48891;SDS011;50130;52.150;5.236;2022-08-30T06:30:10;12.4;;;10.7;;
48891;SDS011;50130;52.150;5.236;2022-08-30T06:31:47;11.0;;;9.9;;
48891;SDS011;50130;52.150;5.236;2022-08-30T06:35:01;11.9;;;10.7;;
48891;SDS011;50130;52.150;5.236;2022-08-30T06:36:37;12.3;;;11.0;;
48891;SDS011;50130;52.150;5.236;2022-08-30T06:38:15;11.1;;;9.9;;
48891;SDS011;50130;52.150;5.236;2022-08-30T06:41:28;10.6;;;9.5;;
48891;SDS011;50130;52.150;5.236;2022-08-30T06:43:07;10.0;;;9.0;;
48891;SDS011;50130;52.150;5.236;2022-08-30T06:44:44;11.2;;;9.4;;
48891;SDS011;50130;52.150;5.236;2022-08-30T06:46:22;10.5;;;9.21;;
48891;SDS011;50130;52.150;5.236;2022-08-30T06:49:37;10.9;;;9.21;;
48891;SDS011;50130;52.150;5.236;2022-08-30T06:51:14;11.1;;;9.0;;
48891;SDS011;50130;52.150;5.236;2022-08-30T06:52:54;10.6;;;9.5;;
48891;SDS011;50130;52.150;5.236;2022-08-30T06:56:07;10.7;;;8.71;;
48891;SDS011;50130;52.150;5.236;2022-08-30T06:57:46;10.7;;;8.0;;
48891;SDS011;50130;52.150;5.236;2022-08-30T06:59:22;11.0;;;7.9;;
48891;SDS011;50130;52.150;5.236;2022-08-30T07:00:58;10.9;;;8.0;;
48891;SDS011;50130;52.150;5.236;2022-08-30T07:04:13;12.2;;;8.0;;
48891;SDS011;50130;52.150;5.236;2022-08-30T07:05:49;9.81;;;7.1;;
48891;SDS011;50130;52.150;5.236;2022-08-30T07:07:25;9.31;;;7.0;;
48891;SDS011;50130;52.150;5.236;2022-08-30T07:10:38;9.1;;;6.6;;
48891;SDS011;50130;52.150;5.236;2022-08-30T07:12:16;7.0;;;6.3;;
48891;SDS011;50130;52.150;5.236;2022-08-30T07:13:52;7.5;;;5.9;;
48891;SDS011;50130;52.150;5.236;2022-08-30T07:15:28;6.8;;;5.8;;
48891;SDS011;50130;52.150;5.236;2022-08-30T07:20:26;6.4;;;5.0;;
48891;SDS011;50130;52.150;5.236;2022-08-30T07:22:02;6.7;;;4.91;;
48891;SDS011;50130;52.150;5.236;2022-08-30T07:25:16;10.4;;;5.4;;
48891;SDS011;50130;52.150;5.236;2022-08-30T07:26:53;8.4;;;4.8;;
48891;SDS011;50130;52.150;5.236;2022-08-30T07:28:29;7.7;;;5.0;;
48891;SDS011;50130;52.150;5.236;2022-08-30T07:30:06;6.6;;;4.91;;
48891;SDS011;50130;52.150;5.236;2022-08-30T07:33:21;6.8;;;4.41;;
48891;SDS011;50130;52.150;5.236;2022-08-30T07:34:58;6.5;;;4.3;;
48891;SDS011;50130;52.150;5.236;2022-08-30T07:36:35;6.2;;;3.9;;
48891;SDS011;50130;52.150;5.236;2022-08-30T07:39:50;7.0;;;3.7;;
48891;SDS011;50130;52.150;5.236;2022-08-30T07:41:28;4.91;;;3.8;;
48891;SDS011;50130;52.150;5.236;2022-08-30T07:43:06;5.2;;;4.0;;
48891;SDS011;50130;52.150;5.236;2022-08-30T07:46:19;8.6;;;3.8;;
48891;SDS011;50130;52.150;5.236;2022-08-30T07:47:56;5.3;;;3.3;;
48891;SDS011;50130;52.150;5.236;2022-08-30T07:49:33;6.2;;;3.6;;
48891;SDS011;50130;52.150;5.236;2022-08-30T07:51:10;6.5;;;3.4;;
48891;SDS011;50130;52.150;5.236;2022-08-30T07:54:24;4.2;;;2.9;;
48891;SDS011;50130;52.150;5.236;2022-08-30T07:56:01;4.61;;;2.7;;
48891;SDS011;50130;52.150;5.236;2022-08-30T07:57:38;3.8;;;2.7;;
48891;SDS011;50130;52.150;5.236;2022-08-30T08:00:50;3.8;;;2.7;;
48891;SDS011;50130;52.150;5.236;2022-08-30T08:02:27;4.91;;;2.1;;
48891;SDS011;50130;52.150;5.236;2022-08-30T08:04:03;3.7;;;2.0;;
48891;SDS011;50130;52.150;5.236;2022-08-30T08:07:18;3.4;;;1.7;;
48891;SDS011;50130;52.150;5.236;2022-08-30T08:08:56;5.0;;;1.7;;
48891;SDS011;50130;52.150;5.236;2022-08-30T08:10:32;4.5;;;1.6;;
48891;SDS011;50130;52.150;5.236;2022-08-30T08:12:11;3.6;;;1.4;;
48891;SDS011;50130;52.150;5.236;2022-08-30T08:15:25;3.6;;;1.2;;
48891;SDS011;50130;52.150;5.236;2022-08-30T08:17:04;5.8;;;1.6;;
48891;SDS011;50130;52.150;5.236;2022-08-30T08:18:41;4.2;;;1.6;;
48891;SDS011;50130;52.150;5.236;2022-08-30T08:21:55;5.3;;;1.4;;
48891;SDS011;50130;52.150;5.236;2022-08-30T08:23:32;14.7;;;2.21;;
48891;SDS011;50130;52.150;5.236;2022-08-30T08:25:09;3.5;;;1.5;;
48891;SDS011;50130;52.150;5.236;2022-08-30T08:26:45;6.8;;;1.3;;
48891;SDS011;50130;52.150;5.236;2022-08-30T08:29:58;5.11;;;1.5;;
48891;SDS011;50130;52.150;5.236;2022-08-30T08:31:35;3.1;;;1.2;;
48891;SDS011;50130;52.150;5.236;2022-08-30T08:33:13;4.91;;;1.3;;
48891;SDS011;50130;52.150;5.236;2022-08-30T08:36:25;3.3;;;1.3;;
48891;SDS011;50130;52.150;5.236;2022-08-30T08:38:01;3.6;;;1.2;;
48891;SDS011;50130;52.150;5.236;2022-08-30T08:39:37;8.1;;;1.7;;
48891;SDS011;50130;52.150;5.236;2022-08-30T08:41:18;5.11;;;1.11;;
48891;SDS011;50130;52.150;5.236;2022-08-30T08:44:50;4.41;;;1.3;;
48891;SDS011;50130;52.150;5.236;2022-08-30T08:46:35;4.1;;;1.3;;
48891;SDS011;50130;52.150;5.236;2022-08-30T08:48:22;4.2;;;1.0;;
48891;SDS011;50130;52.150;5.236;2022-08-30T08:50:06;1.9;;;1.3;;
48891;SDS011;50130;52.150;5.236;2022-08-30T08:54:39;4.3;;;1.11;;
48891;SDS011;50130;52.150;5.236;2022-08-30T08:56:21;2.6;;;1.0;;
48891;SDS011;50130;52.150;5.236;2022-08-30T08:57:59;3.3;;;1.3;;
48891;SDS011;50130;52.150;5.236;2022-08-30T09:01:15;2.21;;;1.11;;
48891;SDS011;50130;52.150;5.236;2022-08-30T09:02:55;4.3;;;1.3;;
48891;SDS011;50130;52.150;5.236;2022-08-30T09:04:34;4.61;;;1.2;;
48891;SDS011;50130;52.150;5.236;2022-08-30T09:08:11;3.2;;;1.3;;
48891;SDS011;50130;52.150;5.236;2022-08-30T09:09:51;3.0;;;1.2;;
48891;SDS011;50130;52.150;5.236;2022-08-30T09:11:30;2.31;;;1.2;;
48891;SDS011;50130;52.150;5.236;2022-08-30T09:13:09;2.9;;;1.3;;
48891;SDS011;50130;52.150;5.236;2022-08-30T09:14:46;5.11;;;1.3;;
48891;SDS011;50130;52.150;5.236;2022-08-30T09:18:40;4.7;;;1.4;;
48891;SDS011;50130;52.150;5.236;2022-08-30T09:20:23;2.5;;;1.3;;
48891;SDS011;50130;52.150;5.236;2022-08-30T09:22:11;2.31;;;1.2;;
48891;SDS011;50130;52.150;5.236;2022-08-30T09:23:54;2.8;;;1.4;;
48891;SDS011;50130;52.150;5.236;2022-08-30T09:25:32;3.3;;;1.2;;
48891;SDS011;50130;52.150;5.236;2022-08-30T09:29:07;5.0;;;1.5;;
48891;SDS011;50130;52.150;5.236;2022-08-30T09:30:57;2.8;;;1.11;;
48891;SDS011;50130;52.150;5.236;2022-08-30T09:32:38;2.1;;;1.2;;
48891;SDS011;50130;52.150;5.236;2022-08-30T09:34:16;4.5;;;1.2;;
48891;SDS011;50130;52.150;5.236;2022-08-30T09:35:56;2.9;;;1.3;;
48891;SDS011;50130;52.150;5.236;2022-08-30T09:37:51;5.3;;;1.3;;
48891;SDS011;50130;52.150;5.236;2022-08-30T09:41:26;4.1;;;1.4;;
48891;SDS011;50130;52.150;5.236;2022-08-30T09:43:19;3.5;;;1.11;;
48891;SDS011;50130;52.150;5.236;2022-08-30T09:45:10;2.7;;;1.2;;
48891;SDS011;50130;52.150;5.236;2022-08-30T09:47:03;2.8;;;1.4;;
48891;SDS011;50130;52.150;5.236;2022-08-30T09:48:43;2.5;;;1.2;;
48891;SDS011;50130;52.150;5.236;2022-08-30T09:50:21;4.7;;;1.3;;
48891;SDS011;50130;52.150;5.236;2022-08-30T09:53:53;3.8;;;1.11;;
48891;SDS011;50130;52.150;5.236;2022-08-30T09:55:46;3.5;;;1.2;;
48891;SDS011;50130;52.150;5.236;2022-08-30T09:57:44;5.5;;;1.4;;
48891;SDS011;50130;52.150;5.236;2022-08-30T09:59:36;3.7;;;1.4;;
48891;SDS011;50130;52.150;5.236;2022-08-30T10:01:19;3.1;;;1.11;;
48891;SDS011;50130;52.150;5.236;2022-08-30T10:03:03;4.5;;;1.2;;
48891;SDS011;50130;52.150;5.236;2022-08-30T10:06:38;2.6;;;1.11;;
48891;SDS011;50130;52.150;5.236;2022-08-30T10:08:20;2.1;;;1.0;;
48891;SDS011;50130;52.150;5.236;2022-08-30T10:10:10;5.0;;;1.5;;
48891;SDS011;50130;52.150;5.236;2022-08-30T10:11:59;2.31;;;1.4;;
48891;SDS011;50130;52.150;5.236;2022-08-30T10:13:48;3.2;;;1.2;;
48891;SDS011;50130;52.150;5.236;2022-08-30T10:15:37;4.41;;;1.5;;
48891;SDS011;50130;52.150;5.236;2022-08-30T10:19:19;3.2;;;1.4;;
48891;SDS011;50130;52.150;5.236;2022-08-30T10:21:05;5.4;;;1.4;;
48891;SDS011;50130;52.150;5.236;2022-08-30T10:22:49;2.31;;;1.3;;
48891;SDS011;50130;52.150;5.236;2022-08-30T10:24:32;6.3;;;1.2;;
48891;SDS011;50130;52.150;5.236;2022-08-30T10:26:16;5.2;;;1.3;;
48891;SDS011;50130;52.150;5.236;2022-08-30T10:28:04;4.1;;;1.3;;
48891;SDS011;50130;52.150;5.236;2022-08-30T10:33:14;3.7;;;1.5;;
48891;SDS011;50130;52.150;5.236;2022-08-30T10:34:56;2.4;;;1.3;;
48891;SDS011;50130;52.150;5.236;2022-08-30T10:36:41;6.5;;;1.4;;
48891;SDS011;50130;52.150;5.236;2022-08-30T10:41:17;5.3;;;1.5;;
48891;SDS011;50130;52.150;5.236;2022-08-30T10:43:00;3.2;;;1.5;;
48891;SDS011;50130;52.150;5.236;2022-08-30T10:44:44;2.8;;;1.4;;
48891;SDS011;50130;52.150;5.236;2022-08-30T10:48:10;2.31;;;1.4;;
48891;SDS011;50130;52.150;5.236;2022-08-30T10:49:55;3.2;;;1.5;;
48891;SDS011;50130;52.150;5.236;2022-08-30T10:51:43;4.2;;;1.4;;
48891;SDS011;50130;52.150;5.236;2022-08-30T10:53:33;6.3;;;1.5;;
48891;SDS011;50130;52.150;5.236;2022-08-30T10:55:18;4.61;;;2.0;;
48891;SDS011;50130;52.150;5.236;2022-08-30T10:58:36;3.8;;;1.5;;
48891;SDS011;50130;52.150;5.236;2022-08-30T11:00:14;5.8;;;1.8;;
48891;SDS011;50130;52.150;5.236;2022-08-30T11:02:06;3.1;;;1.4;;
48891;SDS011;50130;52.150;5.236;2022-08-30T11:07:22;3.0;;;1.5;;
48891;SDS011;50130;52.150;5.236;2022-08-30T11:09:16;3.4;;;1.7;;
48891;SDS011;50130;52.150;5.236;2022-08-30T11:11:11;7.5;;;1.6;;
48891;SDS011;50130;52.150;5.236;2022-08-30T11:12:58;4.91;;;1.4;;
48891;SDS011;50130;52.150;5.236;2022-08-30T11:14:38;2.5;;;1.4;;
48891;SDS011;50130;52.150;5.236;2022-08-30T11:16:19;5.2;;;1.5;;
48891;SDS011;50130;52.150;5.236;2022-08-30T11:18:11;3.2;;;1.6;;
48891;SDS011;50130;52.150;5.236;2022-08-30T11:21:30;7.1;;;1.5;;
48891;SDS011;50130;52.150;5.236;2022-08-30T11:23:25;3.7;;;1.4;;
48891;SDS011;50130;52.150;5.236;2022-08-30T11:25:11;3.0;;;1.6;;
48891;SDS011;50130;52.150;5.236;2022-08-30T11:26:58;4.41;;;1.4;;
48891;SDS011;50130;52.150;5.236;2022-08-30T11:29:08;2.5;;;1.2;;
48891;SDS011;50130;52.150;5.236;2022-08-30T11:30:47;5.2;;;1.4;;
48891;SDS011;50130;52.150;5.236;2022-08-30T11:34:54;4.7;;;1.6;;
48891;SDS011;50130;52.150;5.236;2022-08-30T11:38:57;5.7;;;1.6;;
48891;SDS011;50130;52.150;5.236;2022-08-30T11:40:47;5.0;;;1.5;;
48891;SDS011;50130;52.150;5.236;2022-08-30T11:42:29;5.0;;;1.5;;
48891;SDS011;50130;52.150;5.236;2022-08-30T11:44:27;4.61;;;1.5;;
48891;SDS011;50130;52.150;5.236;2022-08-30T11:46:13;4.7;;;1.5;;
48891;SDS011;50130;52.150;5.236;2022-08-30T11:47:53;3.0;;;1.4;;
48891;SDS011;50130;52.150;5.236;2022-08-30T11:49:42;3.4;;;1.3;;
48891;SDS011;50130;52.150;5.236;2022-08-30T11:54:41;5.4;;;1.4;;
48891;SDS011;50130;52.150;5.236;2022-08-30T11:56:33;4.1;;;1.7;;
48891;SDS011;50130;52.150;5.236;2022-08-30T11:58:28;7.1;;;1.6;;
48891;SDS011;50130;52.150;5.236;2022-08-30T12:00:25;3.9;;;1.5;;
48891;SDS011;50130;52.150;5.236;2022-08-30T12:02:06;3.6;;;1.5;;
48891;SDS011;50130;52.150;5.236;2022-08-30T12:06:01;5.11;;;1.7;;
48891;SDS011;50130;52.150;5.236;2022-08-30T12:07:56;3.8;;;1.3;;
48891;SDS011;50130;52.150;5.236;2022-08-30T12:10:15;4.1;;;1.6;;
48891;SDS011;50130;52.150;5.236;2022-08-30T12:11:59;2.5;;;1.5;;
48891;SDS011;50130;52.150;5.236;2022-08-30T12:13:54;6.3;;;1.5;;
48891;SDS011;50130;52.150;5.236;2022-08-30T12:18:41;4.3;;;1.3;;
48891;SDS011;50130;52.150;5.236;2022-08-30T12:20:23;2.8;;;1.3;;
48891;SDS011;50130;52.150;5.236;2022-08-30T12:22:04;5.11;;;1.7;;
48891;SDS011;50130;52.150;5.236;2022-08-30T12:23:45;3.7;;;1.5;;
48891;SDS011;50130;52.150;5.236;2022-08-30T12:25:27;2.7;;;1.5;;
48891;SDS011;50130;52.150;5.236;2022-08-30T12:29:08;3.4;;;1.8;;
48891;SDS011;50130;52.150;5.236;2022-08-30T12:30:54;4.5;;;1.5;;
48891;SDS011;50130;52.150;5.236;2022-08-30T12:32:30;4.7;;;1.6;;
48891;SDS011;50130;52.150;5.236;2022-08-30T12:34:14;4.8;;;1.6;;
48891;SDS011;50130;52.150;5.236;2022-08-30T12:35:58;3.5;;;1.7;;
48891;SDS011;50130;52.150;5.236;2022-08-30T12:39:15;3.0;;;1.4;;
48891;SDS011;50130;52.150;5.236;2022-08-30T12:40:58;5.2;;;1.6;;
48891;SDS011;50130;52.150;5.236;2022-08-30T12:42:37;7.0;;;1.6;;
48891;SDS011;50130;52.150;5.236;2022-08-30T12:44:18;2.5;;;1.5;;
48891;SDS011;50130;52.150;5.236;2022-08-30T12:47:37;3.4;;;1.5;;
48891;SDS011;50130;52.150;5.236;2022-08-30T12:49:20;2.8;;;1.8;;
48891;SDS011;50130;52.150;5.236;2022-08-30T12:51:02;3.0;;;1.3;;
48891;SDS011;50130;52.150;5.236;2022-08-30T12:52:40;3.7;;;1.4;;
48891;SDS011;50130;52.150;5.236;2022-08-30T12:54:21;3.7;;;1.4;;
48891;SDS011;50130;52.150;5.236;2022-08-30T12:57:53;4.91;;;1.5;;
48891;SDS011;50130;52.150;5.236;2022-08-30T12:59:37;3.9;;;1.4;;
48891;SDS011;50130;52.150;5.236;2022-08-30T13:01:24;4.91;;;1.4;;
48891;SDS011;50130;52.150;5.236;2022-08-30T13:03:03;4.2;;;1.7;;
48891;SDS011;50130;52.150;5.236;2022-08-30T13:05:25;4.7;;;1.7;;
48891;SDS011;50130;52.150;5.236;2022-08-30T13:07:32;5.6;;;1.7;;